Terminal Aerodrome Forecast
Issued by NWS Grand Rapids, MI

Home | Current Version | Previous Version | Text Only | Print | Product List | Glossary On
Versions: 1 2 3 4 5 6 7 8 9 10 11 12
434
FTUS43 KGRR 211120
TAFGRR
TAF
KGRR 211120Z 2112/2212 16007KT P6SM SCT150 BKN250 WS020/21030KT
     FM211400 18008KT P6SM SCT150 BKN250
     FM220000 16006KT P6SM SCT250 WS020/20035KT=

USA.gov is the U.S. government's official web portal to all federal, state and local government web resources and services.